Time;durP1;ratioP1;P1;durP2;ratioP2;P2;SDS_P1;SDS_P2;PMS_P1;PMS_P2;Temp;Humidity;BMP_temperature;BMP_pressure;BME280_temperature;BME280_humidity;BME280_pressure;Samples;Min_cycle;Max_cycle;Signal;HPM_P1;HPM_P2
2023/10/22 00:00:14;;;;;;;5.75;1.10;;;;;;;;;;5066512;28;20052;-76
2023/10/22 00:02:40;;;;;;;3.58;0.95;;;;;;;;;;5066908;28;20496;-76
2023/10/22 00:05:06;;;;;;;2.65;0.93;;;13.90;99.90;;;;;;5066651;28;20565;-76
2023/10/22 00:07:33;;;;;;;5.80;1.30;;;14.00;99.90;;;;;;5066460;28;20088;-76
2023/10/22 00:09:59;;;;;;;2.45;0.80;;;;;;;;;;5066781;28;20078;-76
2023/10/22 00:12:25;;;;;;;3.25;1.08;;;;;;;;;;5050861;28;20059;-76
2023/10/22 00:14:51;;;;;;;4.40;0.70;;;;;;;;;;5068478;28;20407;-75
2023/10/22 00:17:17;;;;;;;3.95;0.93;;;;;;;;;;5066616;28;20044;-75
2023/10/22 00:19:43;;;;;;;3.28;0.95;;;;;;;;;;5067065;28;20048;-76
2023/10/22 00:22:12;;;;;;;4.68;0.75;;;;;;;;;;5066351;28;20052;-75
2023/10/22 00:24:38;;;;;;;4.78;0.90;;;;;;;;;;5066703;28;20392;-75
2023/10/22 00:27:04;;;;;;;5.28;1.13;;;;;;;;;;5066448;28;20044;-75
2023/10/22 00:29:30;;;;;;;1.40;0.88;;;;;;;;;;5066504;28;20059;-75
2023/10/22 00:31:56;;;;;;;2.38;1.30;;;;;;;;;;5050213;28;20677;-75
2023/10/22 00:34:22;;;;;;;5.30;1.30;;;;;;;;;;5063125;28;20082;-76
2023/10/22 00:36:48;;;;;;;3.45;1.15;;;14.00;99.90;;;;;;5065084;28;20076;-74
2023/10/22 00:39:14;;;;;;;4.80;1.23;;;;;;;;;;5066568;28;20074;-75
2023/10/22 00:41:40;;;;;;;2.13;0.90;;;;;;;;;;5061844;28;20086;-75
2023/10/22 00:44:06;;;;;;;9.02;1.42;;;;;;;;;;5067668;28;20044;-75
2023/10/22 00:46:32;;;;;;;8.85;1.13;;;;;;;;;;5066957;28;20716;-74
2023/10/22 00:48:58;;;;;;;7.45;1.52;;;;;;;;;;5065679;28;20121;-75
2023/10/22 00:51:25;;;;;;;1.55;0.80;;;;;;;;;;5066400;28;20121;-74
2023/10/22 00:53:52;;;;;;;5.60;1.33;;;;;;;;;;5067695;28;20120;-75
2023/10/22 00:56:20;;;;;;;3.42;0.88;;;;;;;;;;5049778;28;20045;-75
2023/10/22 00:58:46;;;;;;;5.93;0.90;;;;;;;;;;5066523;28;20044;-75
2023/10/22 01:01:13;;;;;;;4.40;1.15;;;;;;;;;;5067491;28;20056;-75
2023/10/22 01:03:39;;;;;;;6.07;1.27;;;;;;;;;;5053721;28;20076;-76
2023/10/22 01:06:06;;;;;;;2.63;0.73;;;13.10;99.90;;;;;;5070347;28;20044;-74
2023/10/22 01:08:35;;;;;;;8.70;1.15;;;;;;;;;;5054004;28;20407;-75
2023/10/22 01:11:08;;;;;;;6.60;1.35;;;;;;;;;;5070183;28;20049;-75
2023/10/22 01:13:34;;;;;;;5.70;1.25;;;;;;;;;;5068097;28;20044;-74
2023/10/22 01:16:00;;;;;;;2.63;1.27;;;;;;;;;;5069853;28;20044;-75
2023/10/22 01:18:26;;;;;;;2.53;0.93;;;;;;;;;;5069430;28;20922;-75
2023/10/22 01:20:52;;;;;;;4.25;1.02;;;;;;;;;;5069296;28;20060;-75
2023/10/22 01:23:18;;;;;;;6.90;1.15;;;;;;;;;;5071641;28;20117;-75
2023/10/22 01:25:44;;;;;;;5.70;1.05;;;;;;;;;;5070851;28;20056;-75
2023/10/22 01:28:10;;;;;;;5.97;1.63;;;;;;;;;;5069456;28;20055;-74
2023/10/22 01:30:36;;;;;;;4.13;1.00;;;;;;;;;;5069737;28;20834;-74
2023/10/22 01:33:02;;;;;;;1.65;0.82;;;;;;;;;;5069151;28;20037;-74
2023/10/22 01:35:28;;;;;;;4.50;1.38;;;;;;;;;;5053583;28;20048;-74
2023/10/22 01:37:54;;;;;;;4.97;1.05;;;;;;;;;;5070003;28;20087;-75
2023/10/22 01:40:20;;;;;;;2.38;0.90;;;;;;;;;;5071095;28;22112;-74
2023/10/22 01:42:46;;;;;;;1.85;1.00;;;;;;;;;;5069049;28;20068;-74
2023/10/22 01:45:12;;;;;;;4.88;1.20;;;;;;;;;;5069128;28;20055;-75
2023/10/22 01:47:38;;;;;;;3.90;0.88;;;;;;;;;;5068880;28;20720;-75
2023/10/22 01:50:05;;;;;;;3.35;0.80;;;12.50;99.90;;;;;;5070306;28;20463;-76
2023/10/22 01:52:32;;;;;;;3.80;1.17;;;;;;;;;;5068554;28;20040;-76
2023/10/22 01:54:58;;;;;;;2.17;1.08;;;;;;;;;;5071043;28;20044;-77
2023/10/22 01:57:24;;;;;;;3.05;1.17;;;;;;;;;;5069611;28;20151;-76
2023/10/22 01:59:50;;;;;;;2.05;0.70;;;;;;;;;;5069629;28;20830;-76
2023/10/22 02:02:17;;;;;;;6.07;1.95;;;;;;;;;;5068926;28;20076;-76
2023/10/22 02:04:43;;;;;;;2.88;0.85;;;;;;;;;;5067797;28;20049;-76
2023/10/22 02:07:09;;;;;;;3.47;1.05;;;;;;;;;;5069181;28;20511;-77
2023/10/22 02:09:35;;;;;;;4.85;1.20;;;;;;;;;;5070518;28;20074;-76
2023/10/22 02:12:00;;;;;;;5.85;1.00;;;12.10;99.90;;;;;;5069654;28;20036;-77
2023/10/22 02:14:26;;;;;;;4.35;1.05;;;;;;;;;;5069731;28;20047;-76
2023/10/22 02:16:52;;;;;;;5.75;1.95;;;;;;;;;;5069468;28;20072;-77
2023/10/22 02:19:18;;;;;;;6.15;1.33;;;;;;;;;;5071752;28;20048;-76
2023/10/22 02:21:46;;;;;;;4.45;1.48;;;;;;;;;;5071079;28;20059;-76
2023/10/22 02:24:12;;;;;;;7.85;1.50;;;;;;;;;;5053196;28;20051;-76
2023/10/22 02:26:38;;;;;;;4.50;1.58;;;;;;;;;;5070571;28;20068;-76
2023/10/22 02:29:04;;;;;;;5.45;1.17;;;;;;;;;;5069146;28;20071;-77
2023/10/22 02:31:30;;;;;;;3.15;1.02;;;;;;;;;;5068687;28;20052;-76
2023/10/22 02:34:03;;;;;;;2.50;1.52;;;;;;;;;;5068863;28;20087;-76
2023/10/22 02:36:29;;;;;;;7.63;1.75;;;;;;;;;;5069018;28;20048;-76
2023/10/22 02:38:56;;;;;;;5.57;1.15;;;;;;;;;;5069618;28;20044;-76
2023/10/22 02:41:22;;;;;;;4.60;1.60;;;;;;;;;;5069198;28;20072;-76
2023/10/22 02:43:48;;;;;;;4.25;1.38;;;;;;;;;;5068835;28;20040;-76
2023/10/22 02:46:18;;;;;;;3.72;0.90;;;;;;;;;;5068878;28;20044;-76
2023/10/22 02:48:44;;;;;;;1.60;1.10;;;;;;;;;;5068518;28;20487;-76
2023/10/22 02:51:10;;;;;;;6.05;1.40;;;;;;;;;;5068577;28;20037;-76
2023/10/22 02:53:38;;;;;;;6.63;1.73;;;;;;;;;;5068547;28;20167;-76
2023/10/22 02:56:07;;;;;;;3.20;1.13;;;;;;;;;;5068330;28;20056;-77
2023/10/22 02:58:33;;;;;;;5.05;1.60;;;;;;;;;;5067432;28;20052;-76
2023/10/22 03:01:05;;;;;;;3.67;1.10;;;;;;;;;;5067772;28;20496;-76
2023/10/22 03:03:38;;;;;;;1.88;0.90;;;;;;;;;;5068433;28;20048;-76
2023/10/22 03:06:08;;;;;;;4.80;1.38;;;;;;;;;;5067071;28;20163;-76
2023/10/22 03:08:35;;;;;;;3.53;1.30;;;;;;;;;;5068633;28;20079;-76
2023/10/22 03:11:01;;;;;;;2.08;1.10;;;;;;;;;;5051464;28;20075;-77
2023/10/22 03:13:27;;;;;;;1.85;1.40;;;12.30;99.90;;;;;;5068721;28;20056;-76
2023/10/22 03:15:53;;;;;;;3.70;1.55;;;;;;;;;;5067676;28;20054;-76
2023/10/22 03:18:19;;;;;;;3.72;1.08;;;;;;;;;;5067146;28;20063;-76
2023/10/22 03:20:46;;;;;;;4.57;1.60;;;;;;;;;;5051446;28;20056;-76
2023/10/22 03:23:12;;;;;;;3.75;2.10;;;;;;;;;;5067973;28;20056;-76
2023/10/22 03:25:39;;;;;;;2.90;1.92;;;;;;;;;;5066586;28;20117;-76
2023/10/22 03:28:06;;;;;;;2.42;1.70;;;;;;;;;;5067866;28;20036;-76
2023/10/22 03:30:37;;;;;;;4.13;1.75;;;12.40;99.90;;;;;;5068202;28;20094;-76
2023/10/22 03:33:03;;;;;;;3.90;1.73;;;;;;;;;;5068893;28;20044;-76
2023/10/22 03:35:29;;;;;;;3.75;1.85;;;;;;;;;;5067214;28;20123;-75
2023/10/22 03:37:55;;;;;;;2.10;1.63;;;;;;;;;;5067812;28;20041;-76
2023/10/22 03:40:21;;;;;;;3.28;1.65;;;;;;;;;;5051180;28;20060;-75
2023/10/22 03:42:48;;;;;;;3.08;1.67;;;;;;;;;;5067879;28;20059;-76
2023/10/22 03:45:14;;;;;;;2.90;1.80;;;;;;;;;;5067101;28;20056;-75
2023/10/22 03:47:39;;;;;;;3.72;2.00;;;12.30;99.90;;;;;;5050088;28;20392;-74
2023/10/22 03:50:06;;;;;;;2.95;1.80;;;12.30;99.90;;;;;;5067099;28;20041;-75
2023/10/22 03:52:32;;;;;;;8.85;1.98;;;;;;;;;;5067051;28;20089;-75
2023/10/22 03:54:58;;;;;;;5.95;2.08;;;;;;;;;;5066811;28;20040;-76
2023/10/22 03:57:24;;;;;;;3.50;1.40;;;;;;;;;;5065710;28;20059;-76
2023/10/22 03:59:50;;;;;;;3.80;1.73;;;;;;;;;;5066711;28;20518;-75
2023/10/22 04:02:15;;;;;;;5.38;1.75;;;12.40;99.90;;;;;;5066220;28;20048;-75
2023/10/22 04:04:42;;;;;;;4.13;2.28;;;;;;;;;;5066388;28;20045;-76
2023/10/22 04:07:08;;;;;;;2.95;2.20;;;;;;;;;;5067785;28;20119;-76
2023/10/22 04:09:34;;;;;;;4.05;2.38;;;;;;;;;;5067815;28;20032;-75
2023/10/22 04:12:00;;;;;;;4.53;2.45;;;;;;;;;;5049623;28;20040;-75
2023/10/22 04:14:26;;;;;;;4.32;2.60;;;12.50;99.90;;;;;;5066172;28;20530;-75
2023/10/22 04:16:51;;;;;;;3.67;2.65;;;;;;;;;;5066235;28;20127;-76
2023/10/22 04:19:17;;;;;;;4.70;2.47;;;;;;;;;;5066634;28;20048;-75
2023/10/22 04:21:43;;;;;;;5.43;2.53;;;;;;;;;;5064476;28;20060;-75
2023/10/22 04:24:10;;;;;;;7.25;2.50;;;;;;;;;;5065950;28;20483;-75
2023/10/22 04:26:36;;;;;;;5.97;2.60;;;;;;;;;;5066549;28;20040;-75
2023/10/22 04:29:02;;;;;;;3.30;2.70;;;;;;;;;;5049512;28;20754;-75
2023/10/22 04:31:28;;;;;;;5.25;3.22;;;;;;;;;;5049201;28;20704;-76
2023/10/22 04:33:54;;;;;;;4.38;3.33;;;;;;;;;;5065673;28;20059;-75
2023/10/22 04:36:20;;;;;;;3.70;3.00;;;;;;;;;;5065704;28;20044;-75
2023/10/22 04:38:48;;;;;;;3.95;2.88;;;;;;;;;;5049430;28;20134;-75
2023/10/22 04:41:14;;;;;;;4.10;2.90;;;;;;;;;;5066289;28;20075;-75
2023/10/22 04:43:41;;;;;;;5.30;2.80;;;;;;;;;;5065904;28;20677;-76
2023/10/22 04:46:06;;;;;;;5.03;3.28;;;12.70;99.90;;;;;;5065790;28;20078;-75
2023/10/22 04:48:32;;;;;;;3.70;2.80;;;;;;;;;;5067257;28;20617;-76
2023/10/22 04:51:04;;;;;;;4.22;2.67;;;12.70;99.90;;;;;;5065414;28;20504;-76
2023/10/22 04:53:29;;;;;;;4.93;3.33;;;;;;;;;;5065485;28;20051;-75
2023/10/22 04:55:56;;;;;;;4.78;3.13;;;;;;;;;;5065071;28;20044;-75
2023/10/22 04:58:22;;;;;;;3.67;2.83;;;;;;;;;;5064665;28;20155;-75
2023/10/22 05:00:48;;;;;;;4.10;3.58;;;;;;;;;;5064236;28;20519;-76
2023/10/22 05:03:14;;;;;;;5.05;3.30;;;;;;;;;;5063612;28;20489;-76
2023/10/22 05:05:40;;;;;;;4.75;4.07;;;;;;;;;;5058340;28;20044;-76
2023/10/22 05:08:07;;;;;;;5.50;3.97;;;;;;;;;;5063982;28;20404;-76
2023/10/22 05:10:39;;;;;;;4.60;3.53;;;;;;;;;;5064723;28;20040;-75
2023/10/22 05:13:06;;;;;;;3.55;3.17;;;;;;;;;;5064003;28;20076;-75
2023/10/22 05:15:31;;;;;;;4.30;2.72;;;12.90;99.90;;;;;;5064152;28;20047;-75
2023/10/22 05:17:57;;;;;;;3.60;2.97;;;;;;;;;;5064101;28;20037;-75
2023/10/22 05:20:32;;;;;;;3.35;2.00;;;;;;;;;;5064082;28;20103;-77
2023/10/22 05:22:58;;;;;;;4.10;1.92;;;;;;;;;;5064125;28;20048;-76
2023/10/22 05:25:25;;;;;;;3.20;1.30;;;;;;;;;;5063908;28;20048;-75
2023/10/22 05:27:50;;;;;;;2.65;1.30;;;12.70;99.90;;;;;;5063891;28;20045;-76
2023/10/22 05:30:16;;;;;;;2.35;1.17;;;;;;;;;;5063822;28;20051;-76
2023/10/22 05:32:42;;;;;;;2.70;1.35;;;;;;;;;;5063630;28;20135;-76
2023/10/22 05:35:08;;;;;;;2.05;1.13;;;;;;;;;;5064132;28;20148;-76
2023/10/22 05:37:34;;;;;;;3.17;1.33;;;;;;;;;;5064999;28;20084;-77
2023/10/22 05:40:00;;;;;;;3.88;1.50;;;;;;;;;;5064811;28;20133;-73
2023/10/22 05:42:26;;;;;;;3.70;1.25;;;;;;;;;;5052190;28;20489;-74
2023/10/22 05:44:53;;;;;;;2.08;1.25;;;;;;;;;;5056459;28;20381;-74
2023/10/22 05:47:22;;;;;;;3.38;1.23;;;;;;;;;;5040021;28;20032;-73
2023/10/22 05:50:05;;;;;;;3.20;1.00;;;;;;;;;;5061715;28;21288;-75
2023/10/22 05:52:38;;;;;;;4.57;1.20;;;;;;;;;;5043258;28;20112;-75
2023/10/22 05:55:43;;;;;;;4.35;1.40;;;;;;;;;;5058708;28;20044;-75
2023/10/22 05:58:12;;;;;;;4.40;2.33;;;;;;;;;;5060234;28;20143;-70
2023/10/22 06:00:48;;;;;;;10.60;1.73;;;;;;;;;;5060167;28;20045;-69
2023/10/22 06:03:14;;;;;;;5.93;1.77;;;;;;;;;;5061181;28;20140;-69
2023/10/22 06:05:40;;;;;;;6.75;1.70;;;;;;;;;;5060185;28;20858;-71
2023/10/22 06:08:06;;;;;;;7.32;1.90;;;;;;;;;;5061853;28;20039;-73
2023/10/22 06:10:46;;;;;;;7.47;1.98;;;;;;;;;;5041378;28;20044;-73
2023/10/22 06:13:18;;;;;;;9.02;1.73;;;;;;;;;;5023049;28;20056;-73
2023/10/22 06:15:47;;;;;;;7.75;1.83;;;;;;;;;;5028202;28;20130;-71
2023/10/22 06:18:19;;;;;;;8.57;1.45;;;;;;;;;;5059555;28;20049;-71
2023/10/22 06:20:45;;;;;;;6.82;1.60;;;;;;;;;;5059377;28;20129;-71
2023/10/22 06:23:11;;;;;;;7.78;1.70;;;;;;;;;;5059269;28;20508;-71
2023/10/22 06:25:46;;;;;;;3.72;1.40;;;;;;;;;;5042850;28;20811;-72
2023/10/22 06:28:12;;;;;;;8.10;2.20;;;;;;;;;;5043001;28;20045;-70
2023/10/22 06:30:38;;;;;;;3.50;1.60;;;;;;;;;;5059375;28;20530;-71
2023/10/22 06:36:27;;;;;;;4.93;1.65;;;;;;;;;;5038443;28;20090;-71
2023/10/22 06:38:52;;;;;;;4.22;2.13;;;;;;;;;;5037455;28;20483;-71
2023/10/22 06:41:21;;;;;;;6.13;1.40;;;;;;;;;;5033997;28;20040;-72
2023/10/22 06:43:47;;;;;;;5.82;1.60;;;;;;;;;;5013603;28;20566;-72
2023/10/22 06:46:14;;;;;;;6.07;1.80;;;;;;;;;;5033026;28;20099;-71
2023/10/22 06:48:42;;;;;;;6.72;1.85;;;;;;;;;;5036961;28;20474;-70
2023/10/22 06:51:10;;;;;;;4.45;1.67;;;;;;;;;;5020849;28;20048;-71
2023/10/22 06:53:37;;;;;;;7.47;2.05;;;;;;;;;;5020516;28;20486;-70
2023/10/22 06:56:31;;;;;;;5.57;2.35;;;;;;;;;;5038568;28;20052;-71
2023/10/22 06:58:57;;;;;;;4.75;2.20;;;;;;;;;;5032712;28;20543;-70
2023/10/22 07:01:23;;;;;;;4.07;2.28;;;;;;;;;;5019722;28;20055;-73
2023/10/22 07:04:14;;;;;;;8.32;2.88;;;;;;;;;;5033637;28;20048;-71
2023/10/22 07:06:42;;;;;;;6.20;2.80;;;;;;;;;;5018211;28;20569;-71
2023/10/22 07:09:11;;;;;;;6.00;2.85;;;;;;;;;;5007669;28;20048;-70
2023/10/22 07:11:59;;;;;;;8.82;3.17;;;;;;;;;;5053584;28;20036;-72
2023/10/22 07:14:26;;;;;;;10.18;3.00;;;;;;;;;;5040097;28;20046;-69
2023/10/22 07:17:10;;;;;;;5.82;3.03;;;;;;;;;;5055216;28;20040;-70
2023/10/22 07:19:37;;;;;;;8.63;2.72;;;;;;;;;;5057765;28;20040;-74
2023/10/22 07:22:12;;;;;;;10.02;3.45;;;;;;;;;;5055789;28;20060;-72
2023/10/22 07:24:38;;;;;;;5.85;3.05;;;;;;;;;;5038911;28;20128;-71
2023/10/22 07:30:29;;;;;;;6.93;2.90;;;;;;;;;;5052858;28;20047;-71
2023/10/22 07:32:56;;;;;;;6.70;2.80;;;;;;;;;;5054914;28;20044;-69
2023/10/22 07:35:22;;;;;;;9.32;3.08;;;;;;;;;;5050449;28;20955;-70
2023/10/22 07:37:48;;;;;;;8.70;2.72;;;;;;;;;;5039953;28;20144;-69
2023/10/22 07:40:14;;;;;;;4.63;2.55;;;;;;;;;;5056066;28;20075;-69
2023/10/22 07:42:50;;;;;;;5.72;2.80;;;;;;;;;;5058482;28;20459;-72
2023/10/22 07:45:16;;;;;;;9.00;2.72;;;;;;;;;;5056488;28;20577;-70
2023/10/22 07:47:46;;;;;;;9.70;3.33;;;;;;;;;;5040281;28;20117;-71
2023/10/22 07:50:16;;;;;;;6.28;3.08;;;;;;;;;;5041153;28;20044;-72
2023/10/22 07:52:42;;;;;;;6.88;2.53;;;;;;;;;;5035043;28;20041;-70
2023/10/22 07:55:09;;;;;;;7.97;2.67;;;;;;;;;;5052310;28;20209;-70
2023/10/22 07:57:35;;;;;;;6.85;2.90;;;;;;;;;;5050067;28;20044;-69
2023/10/22 08:00:02;;;;;;;5.57;2.35;;;;;;;;;;5053000;28;20047;-71
2023/10/22 08:02:28;;;;;;;5.03;2.60;;;;;;;;;;5018456;28;20044;-70
2023/10/22 08:04:54;;;;;;;7.18;2.50;;;;;;;;;;5057121;28;20629;-70
2023/10/22 08:07:21;;;;;;;10.20;2.65;;;;;;;;;;5049432;28;20041;-71
2023/10/22 08:09:47;;;;;;;7.30;2.47;;;;;;;;;;5051399;28;20048;-69
2023/10/22 08:12:13;;;;;;;5.63;2.10;;;;;;;;;;5052740;28;20048;-71
2023/10/22 08:14:39;;;;;;;6.82;2.00;;;;;;;;;;5047633;28;20495;-69
2023/10/22 08:17:05;;;;;;;6.95;2.08;;;;;;;;;;5049512;28;20044;-72
2023/10/22 08:19:31;;;;;;;3.33;1.80;;;;;;;;;;5053515;28;20045;-72
2023/10/22 08:21:57;;;;;;;7.18;2.45;;;;;;;;;;5055146;28;20840;-73
2023/10/22 08:24:23;;;;;;;5.03;1.77;;;;;;;;;;5052319;28;20056;-72
2023/10/22 08:26:49;;;;;;;4.95;1.60;;;;;;;;;;5040391;28;20396;-73
2023/10/22 08:29:15;;;;;;;7.25;2.13;;;;;;;;;;5039729;28;20051;-72
2023/10/22 08:31:41;;;;;;;5.28;1.55;;;;;;;;;;5057038;28;20060;-72
2023/10/22 08:34:08;;;;;;;4.32;1.40;;;;;;;;;;5056717;28;20033;-72
2023/10/22 08:36:35;;;;;;;2.08;1.40;;;;;;;;;;5061298;28;20051;-72
2023/10/22 08:39:02;;;;;;;4.18;1.25;;;;;;;;;;5062123;28;20072;-72
2023/10/22 08:41:36;;;;;;;5.05;1.30;;;13.10;99.90;;;;;;5060468;28;20576;-71
2023/10/22 08:44:02;;;;;;;7.75;1.55;;;;;;;;;;5060181;28;20450;-71
2023/10/22 08:46:28;;;;;;;5.32;1.52;;;;;;;;;;5062161;28;20044;-72
2023/10/22 08:48:54;;;;;;;5.70;1.40;;;;;;;;;;5059745;28;20400;-71
2023/10/22 08:51:22;;;;;;;5.40;1.17;;;;;;;;;;5057131;28;20045;-70
2023/10/22 08:53:48;;;;;;;6.97;1.40;;;;;;;;;;5053996;28;20049;-70
2023/10/22 08:56:15;;;;;;;6.68;1.42;;;;;;;;;;5035629;28;20049;-70
2023/10/22 08:58:41;;;;;;;2.92;0.98;;;;;;;;;;5053493;28;20048;-70
2023/10/22 09:01:08;;;;;;;1.52;0.60;;;14.90;99.90;;;;;;5052521;28;20477;-71
2023/10/22 09:03:35;;;;;;;2.65;1.00;;;;;;;;;;5054102;28;20216;-71
2023/10/22 09:06:01;;;;;;;6.88;1.33;;;;;;;;;;5051438;28;20104;-71
2023/10/22 09:08:54;;;;;;;5.82;1.02;;;15.40;99.90;;;;;;5058298;28;20044;-73
2023/10/22 09:11:20;;;;;;;2.83;0.80;;;;;;;;;;5031151;28;20587;-72
2023/10/22 09:13:52;;;;;;;3.25;0.90;;;;;;;;;;5058213;28;20522;-72
2023/10/22 09:16:32;;;;;;;5.63;0.85;;;16.50;99.90;;;;;;5059012;28;20598;-72
2023/10/22 09:19:01;;;;;;;3.30;1.10;;;;;;;;;;5055111;28;20544;-72
2023/10/22 09:21:44;;;;;;;3.92;0.60;;;17.80;99.90;;;;;;5035152;28;20067;-71
2023/10/22 09:24:10;;;;;;;2.13;0.57;;;19.20;99.90;;;;;;5061452;28;20053;-71
2023/10/22 09:26:48;;;;;;;6.03;1.05;;;19.60;99.90;;;;;;5060815;28;20050;-72
2023/10/22 09:29:14;;;;;;;2.38;0.60;;;;;;;;;;5043391;28;20044;-71
2023/10/22 09:31:49;;;;;;;5.10;0.82;;;22.40;99.90;;;;;;5061987;28;20435;-70
2023/10/22 09:34:31;;;;;;;2.78;0.43;;;21.70;99.90;;;;;;5063908;28;20083;-70
2023/10/22 09:36:58;;;;;;;3.08;0.50;;;21.30;99.90;;;;;;5056787;28;20068;-70
2023/10/22 09:39:46;;;;;;;4.95;0.90;;;22.70;99.90;;;;;;5058803;28;20073;-70
2023/10/22 09:42:15;;;;;;;1.92;0.82;;;21.60;99.90;;;;;;5042872;28;20052;-70
2023/10/22 09:44:41;;;;;;;0.90;0.50;;;20.10;99.90;;;;;;5063599;28;20044;-71
2023/10/22 09:47:07;;;;;;;4.30;0.52;;;18.80;99.90;;;;;;5060116;28;20101;-69
2023/10/22 09:49:35;;;;;;;4.18;0.88;;;;;;;;;;5060312;28;20351;-70
2023/10/22 09:52:03;;;;;;;2.15;0.60;;;17.10;99.90;;;;;;5062684;28;20040;-70
2023/10/22 09:54:40;;;;;;;2.65;0.45;;;16.80;99.90;;;;;;5057107;28;20602;-71
2023/10/22 09:57:18;;;;;;;0.90;0.40;;;19.00;99.90;;;;;;5051629;28;20462;-72
2023/10/22 10:03:04;;;;;;;2.35;0.50;;;19.70;99.90;;;;;;5081673;22;20064;-92
2023/10/22 10:05:33;;;;;;;2.38;0.32;;;18.60;99.90;;;;;;5045154;28;20047;-94
2023/10/22 10:07:59;;;;;;;4.40;0.47;;;;;;;;;;5056978;28;20045;-91
2023/10/22 10:10:25;;;;;;;0.73;0.30;;;;;;;;;;5064213;28;20036;-89
2023/10/22 10:12:52;;;;;;;1.55;0.30;;;;;;;;;;5047123;28;20039;-92
2023/10/22 10:15:34;;;;;;;1.38;0.40;;;16.30;99.90;;;;;;5054209;28;20403;-89
2023/10/22 10:18:01;;;;;;;2.60;0.30;;;;;;;;;;5039921;28;20040;-88
2023/10/22 10:20:31;;;;;;;1.50;0.50;;;15.20;99.90;;;;;;5043458;28;20052;-89
2023/10/22 10:23:05;;;;;;;4.93;0.50;;;15.10;99.90;;;;;;5057667;28;20582;-88
2023/10/22 10:25:32;;;;;;;1.90;0.50;;;;;;;;;;5054063;28;20055;-90
2023/10/22 10:28:03;;;;;;;4.68;0.50;;;;;;;;;;5044458;28;20078;-88
2023/10/22 10:30:29;;;;;;;2.83;0.60;;;;;;;;;;5049609;28;20111;-91
2023/10/22 10:32:55;;;;;;;3.45;0.52;;;;;;;;;;5052730;28;20453;-90
2023/10/22 10:35:21;;;;;;;2.40;0.40;;;;;;;;;;5049689;28;20051;-90
2023/10/22 10:38:15;;;;;;;1.08;0.52;;;15.00;99.90;;;;;;5046933;28;20048;-89
2023/10/22 10:40:42;;;;;;;2.25;0.55;;;;;;;;;;5041964;28;20075;-90
2023/10/22 10:43:08;;;;;;;2.75;0.52;;;;;;;;;;5055273;28;20579;-89
2023/10/22 10:45:34;;;;;;;2.22;0.45;;;;;;;;;;5041108;28;20051;-90
2023/10/22 10:48:01;;;;;;;1.52;0.40;;;;;;;;;;5070304;28;20035;-90
2023/10/22 10:50:27;;;;;;;4.32;0.50;;;;;;;;;;5039786;28;20387;-89
2023/10/22 10:52:59;;;;;;;3.60;0.60;;;;;;;;;;5065216;28;20035;-89
2023/10/22 10:55:32;;;;;;;2.42;0.50;;;;;;;;;;5049979;28;20071;-89
2023/10/22 10:58:00;;;;;;;1.38;0.43;;;15.30;99.90;;;;;;5053687;28;20063;-90
2023/10/22 11:00:28;;;;;;;1.10;0.40;;;;;;;;;;5046165;28;20086;-89
2023/10/22 11:03:08;;;;;;;1.70;0.50;;;;;;;;;;5048400;28;20140;-92
2023/10/22 11:05:37;;;;;;;1.58;0.50;;;;;;;;;;5051126;28;20531;-88
2023/10/22 11:08:04;;;;;;;2.42;0.60;;;15.10;99.90;;;;;;5071111;28;20047;-89
2023/10/22 11:10:33;;;;;;;4.82;0.70;;;;;;;;;;5053349;28;20162;-88
2023/10/22 11:13:06;;;;;;;1.40;0.45;;;;;;;;;;5064305;28;20044;-90
2023/10/22 11:15:32;;;;;;;1.52;0.55;;;;;;;;;;5047094;28;20047;-89
2023/10/22 11:18:17;;;;;;;3.35;0.50;;;;;;;;;;5048050;28;20404;-89
2023/10/22 11:20:43;;;;;;;3.80;1.02;;;;;;;;;;5053253;28;21027;-91
2023/10/22 11:23:18;;;;;;;1.75;0.77;;;14.90;99.90;;;;;;5068221;28;20040;-89
2023/10/22 11:25:53;;;;;;;1.55;0.60;;;;;;;;;;5078652;28;20074;-90
2023/10/22 11:28:20;;;;;;;3.08;0.50;;;;;;;;;;5044904;28;20044;-90
2023/10/22 11:30:48;;;;;;;1.00;0.45;;;;;;;;;;5048746;28;20071;-89
2023/10/22 11:33:34;;;;;;;3.60;0.52;;;;;;;;;;5049742;28;20044;-90
2023/10/22 11:36:00;;;;;;;2.70;0.50;;;;;;;;;;5060381;28;20510;-89
2023/10/22 11:38:29;;;;;;;1.45;0.52;;;;;;;;;;5052336;28;20442;-89
2023/10/22 11:44:55;;;;;;;2.47;0.75;;;;;;;;;;5083533;28;20121;-89
2023/10/22 11:47:36;;;;;;;3.13;0.65;;;;;;;;;;5024340;28;20052;-89
2023/10/22 11:50:05;;;;;;;1.85;0.45;;;;;;;;;;5064582;28;20101;-88
2023/10/22 11:52:37;;;;;;;4.72;0.55;;;;;;;;;;5051848;28;20048;-88
2023/10/22 11:55:10;;;;;;;0.82;0.40;;;;;;;;;;5049873;28;20039;-89
2023/10/22 11:57:39;;;;;;;3.20;0.55;;;;;;;;;;5056656;28;20100;-88
2023/10/22 12:00:06;;;;;;;2.78;0.50;;;;;;;;;;5070316;28;20040;-88
2023/10/22 12:02:34;;;;;;;3.30;0.50;;;;;;;;;;5068989;28;20056;-87
2023/10/22 12:05:00;;;;;;;1.58;0.50;;;;;;;;;;5074069;28;20055;-88
2023/10/22 12:07:26;;;;;;;1.38;0.52;;;;;;;;;;5069679;28;20051;-88
2023/10/22 12:09:52;;;;;;;2.97;0.63;;;;;;;;;;5058703;28;20118;-88
2023/10/22 12:12:21;;;;;;;2.20;0.45;;;;;;;;;;5052263;28;20104;-89
2023/10/22 12:14:47;;;;;;;3.03;0.63;;;;;;;;;;5069581;28;20043;-89
2023/10/22 12:17:17;;;;;;;1.17;0.52;;;;;;;;;;5048626;28;20040;-89
2023/10/22 12:19:43;;;;;;;1.40;0.70;;;;;;;;;;5062921;28;20586;-88
2023/10/22 12:22:10;;;;;;;1.73;0.50;;;;;;;;;;5039723;28;20055;-90
2023/10/22 12:24:36;;;;;;;2.55;0.50;;;;;;;;;;5035969;28;20041;-88
2023/10/22 12:27:02;;;;;;;3.20;0.55;;;;;;;;;;5052560;28;20101;-88
2023/10/22 12:29:28;;;;;;;1.10;0.60;;;;;;;;;;5060464;28;20037;-88
2023/10/22 12:31:54;;;;;;;4.03;0.82;;;;;;;;;;5045285;28;20837;-90
2023/10/22 12:34:20;;;;;;;1.40;0.50;;;;;;;;;;5062527;28;20040;-89
2023/10/22 12:36:46;;;;;;;1.23;0.57;;;;;;;;;;5054672;28;20084;-89
2023/10/22 12:39:13;;;;;;;2.15;0.68;;;;;;;;;;5054940;28;20589;-89
2023/10/22 12:41:39;;;;;;;3.50;0.90;;;;;;;;;;5040639;28;20044;-90
2023/10/22 12:44:05;;;;;;;3.25;0.82;;;;;;;;;;5050483;28;20068;-89
2023/10/22 12:46:31;;;;;;;3.30;0.80;;;;;;;;;;5040004;28;20423;-89
2023/10/22 12:48:57;;;;;;;1.80;0.80;;;;;;;;;;5061393;28;20040;-88
2023/10/22 12:51:23;;;;;;;2.95;0.85;;;;;;;;;;5055853;28;20063;-88
2023/10/22 12:53:49;;;;;;;3.38;0.70;;;;;;;;;;5049868;28;20055;-88
2023/10/22 12:56:17;;;;;;;1.27;0.77;;;;;;;;;;5063249;28;20048;-89
2023/10/22 12:58:43;;;;;;;4.93;1.20;;;;;;;;;;5042536;28;20082;-88
2023/10/22 13:01:09;;;;;;;3.90;1.33;;;;;;;;;;5048759;28;20158;-88
2023/10/22 13:03:35;;;;;;;2.50;0.82;;;;;;;;;;5062697;28;20245;-90
2023/10/22 13:06:02;;;;;;;4.15;0.93;;;;;;;;;;5049429;28;20044;-89
2023/10/22 13:08:28;;;;;;;2.20;0.80;;;;;;;;;;5064841;28;20154;-89
2023/10/22 13:10:54;;;;;;;3.85;1.02;;;;;;;;;;5043973;28;20088;-87
2023/10/22 13:13:20;;;;;;;3.05;1.10;;;;;;;;;;5098623;28;20039;-88
2023/10/22 13:15:46;;;;;;;4.05;0.85;;;;;;;;;;5057988;28;20036;-89
2023/10/22 13:18:12;;;;;;;7.43;2.25;;;;;;;;;;5054305;28;20134;-89
2023/10/22 13:20:38;;;;;;;2.65;0.80;;;;;;;;;;5056049;28;20486;-91
2023/10/22 13:23:04;;;;;;;3.03;1.40;;;;;;;;;;5039709;28;20055;-89
2023/10/22 13:25:31;;;;;;;7.85;1.05;;;;;;;;;;5055920;28;20048;-90
2023/10/22 13:27:57;;;;;;;3.92;1.65;;;;;;;;;;5059304;28;20032;-89
2023/10/22 13:30:23;;;;;;;2.33;1.00;;;;;;;;;;5041962;28;20046;-89
2023/10/22 13:32:49;;;;;;;5.00;1.08;;;;;;;;;;5053849;28;20043;-88
2023/10/22 13:35:15;;;;;;;1.67;0.80;;;;;;;;;;5062140;28;20517;-89
2023/10/22 13:37:42;;;;;;;3.13;0.90;;;;;;;;;;5059177;28;20044;-88
2023/10/22 13:40:09;;;;;;;3.88;0.82;;;;;;;;;;5043145;28;20040;-89
2023/10/22 13:42:36;;;;;;;1.85;0.57;;;;;;;;;;5053470;28;20119;-90
2023/10/22 13:45:04;;;;;;;2.40;0.75;;;;;;;;;;5043416;28;20036;-89
2023/10/22 13:47:30;;;;;;;3.13;1.20;;;;;;;;;;5048664;28;20973;-88
2023/10/22 13:49:56;;;;;;;2.65;0.70;;;;;;;;;;5049709;28;20449;-90
2023/10/22 13:52:22;;;;;;;1.77;0.80;;;;;;;;;;5069647;28;20043;-90
2023/10/22 14:31:44;;;;;;;4.75;0.82;;;;;;;;;;5071429;28;20047;-91
2023/10/22 14:34:17;;;;;;;0.68;0.47;;;;;;;;;;5052476;28;20048;-94
2023/10/22 14:36:44;;;;;;;3.13;0.77;;;;;;;;;;5065744;28;20133;-92
2023/10/22 14:39:10;;;;;;;2.67;0.80;;;;;;;;;;5054669;28;20082;-90
2023/10/22 14:41:42;;;;;;;2.55;1.05;;;;;;;;;;5066366;28;20045;-92
2023/10/22 14:44:08;;;;;;;2.92;0.73;;;;;;;;;;5064515;28;20089;-90
2023/10/22 14:46:34;;;;;;;2.20;0.80;;;;;;;;;;5064215;28;20044;-88
2023/10/22 14:49:00;;;;;;;1.65;0.63;;;;;;;;;;5063393;28;20155;-88
2023/10/22 14:51:26;;;;;;;4.53;0.93;;;;;;;;;;5072177;28;20130;-88
2023/10/22 14:53:52;;;;;;;3.72;0.93;;;;;;;;;;5066307;28;20130;-88
2023/10/22 14:56:18;;;;;;;1.70;0.60;;;;;;;;;;5059009;28;20075;-86
2023/10/22 14:58:44;;;;;;;1.85;0.82;;;;;;;;;;5063013;28;20577;-88
2023/10/22 15:01:13;;;;;;;2.28;0.73;;;;;;;;;;5043780;28;20051;-87
2023/10/22 15:03:39;;;;;;;2.47;0.50;;;;;;;;;;5065916;28;20051;-87
2023/10/22 15:06:06;;;;;;;3.70;0.80;;;;;;;;;;5044372;28;20758;-89
2023/10/22 15:08:32;;;;;;;2.92;0.90;;;;;;;;;;5066636;28;20035;-88
2023/10/22 15:11:01;;;;;;;3.25;0.63;;;13.50;99.90;;;;;;5064966;28;20039;-89
2023/10/22 15:13:27;;;;;;;2.33;0.80;;;;;;;;;;5034594;28;20033;-90
2023/10/22 15:15:53;;;;;;;6.95;1.33;;;;;;;;;;5047871;28;20078;-90
2023/10/22 15:18:19;;;;;;;2.70;0.65;;;;;;;;;;5076634;28;20805;-88
2023/10/22 15:20:48;;;;;;;2.50;0.57;;;13.20;99.90;;;;;;5054264;28;20089;-90